sensor_id;sensor_type;location;lat;lon;timestamp;pressure;altitude;pressure_sealevel;temperature;humidity
70206;BME280;57593;55.896;37.396;2023-01-25T00:00:21;100918.31;;;0.37;100.00
70206;BME280;57593;55.896;37.396;2023-01-25T00:00:52;100916.63;;;0.43;100.00
70206;BME280;57593;55.896;37.396;2023-01-25T00:01:23;100913.50;;;0.64;100.00
70206;BME280;57593;55.896;37.396;2023-01-25T00:01:54;100917.22;;;0.68;100.00
70206;BME280;57593;55.896;37.396;2023-01-25T00:02:24;100914.63;;;0.57;100.00
70206;BME280;57593;55.896;37.396;2023-01-25T00:02:55;100911.66;;;0.41;100.00
70206;BME280;57593;55.896;37.396;2023-01-25T00:03:28;100915.63;;;0.56;100.00
70206;BME280;57593;55.896;37.396;2023-01-25T00:03:59;100912.59;;;0.47;100.00
70206;BME280;57593;55.896;37.396;2023-01-25T00:04:30;100909.19;;;0.46;100.00
70206;BME280;57593;55.896;37.396;2023-01-25T00:05:00;100910.00;;;0.47;100.00
70206;BME280;57593;55.896;37.396;2023-01-25T00:05:31;100900.59;;;0.58;100.00
70206;BME280;57593;55.896;37.396;2023-01-25T00:06:02;100909.50;;;0.38;100.00
70206;BME280;57593;55.896;37.396;2023-01-25T00:06:32;100905.19;;;0.32;100.00
70206;BME280;57593;55.896;37.396;2023-01-25T00:07:03;100908.38;;;0.34;100.00
70206;BME280;57593;55.896;37.396;2023-01-25T00:07:34;100900.47;;;0.41;100.00
70206;BME280;57593;55.896;37.396;2023-01-25T00:08:05;100905.00;;;0.45;100.00
70206;BME280;57593;55.896;37.396;2023-01-25T00:08:35;100911.09;;;0.51;100.00
70206;BME280;57593;55.896;37.396;2023-01-25T00:09:11;100912.03;;;0.57;100.00
70206;BME280;57593;55.896;37.396;2023-01-25T00:09:42;100914.16;;;0.48;100.00
70206;BME280;57593;55.896;37.396;2023-01-25T00:10:13;100912.25;;;0.55;100.00
70206;BME280;57593;55.896;37.396;2023-01-25T00:10:43;100915.06;;;0.53;100.00
70206;BME280;57593;55.896;37.396;2023-01-25T00:11:14;100900.25;;;0.54;100.00
70206;BME280;57593;55.896;37.396;2023-01-25T00:11:46;100903.09;;;0.52;100.00
70206;BME280;57593;55.896;37.396;2023-01-25T00:12:17;100907.06;;;0.55;100.00
70206;BME280;57593;55.896;37.396;2023-01-25T00:12:47;100910.91;;;0.64;100.00
70206;BME280;57593;55.896;37.396;2023-01-25T00:13:18;100912.69;;;0.64;100.00
70206;BME280;57593;55.896;37.396;2023-01-25T00:13:52;100905.78;;;0.58;100.00
70206;BME280;57593;55.896;37.396;2023-01-25T00:14:23;100908.16;;;0.47;100.00
70206;BME280;57593;55.896;37.396;2023-01-25T00:14:54;100904.66;;;0.42;100.00
70206;BME280;57593;55.896;37.396;2023-01-25T00:15:24;100905.78;;;0.58;100.00
70206;BME280;57593;55.896;37.396;2023-01-25T00:16:02;100914.97;;;0.60;100.00
70206;BME280;57593;55.896;37.396;2023-01-25T00:16:33;100904.22;;;0.68;100.00
70206;BME280;57593;55.896;37.396;2023-01-25T00:17:03;100907.84;;;0.67;100.00
70206;BME280;57593;55.896;37.396;2023-01-25T00:17:34;100912.16;;;0.74;100.00
70206;BME280;57593;55.896;37.396;2023-01-25T00:18:05;100912.16;;;0.74;100.00
70206;BME280;57593;55.896;37.396;2023-01-25T00:18:35;100907.28;;;0.65;100.00
70206;BME280;57593;55.896;37.396;2023-01-25T00:19:07;100909.66;;;0.79;100.00
70206;BME280;57593;55.896;37.396;2023-01-25T00:19:38;100904.25;;;0.92;100.00
70206;BME280;57593;55.896;37.396;2023-01-25T00:20:09;100902.78;;;0.84;100.00
70206;BME280;57593;55.896;37.396;2023-01-25T00:20:40;100898.03;;;0.81;100.00
70206;BME280;57593;55.896;37.396;2023-01-25T00:21:16;100903.47;;;0.80;100.00
70206;BME280;57593;55.896;37.396;2023-01-25T00:21:47;100893.03;;;0.68;100.00
70206;BME280;57593;55.896;37.396;2023-01-25T00:22:18;100897.09;;;0.64;100.00
70206;BME280;57593;55.896;37.396;2023-01-25T00:22:48;100900.97;;;0.61;100.00
70206;BME280;57593;55.896;37.396;2023-01-25T00:23:19;100890.97;;;0.46;100.00
70206;BME280;57593;55.896;37.396;2023-01-25T00:23:50;100888.03;;;0.54;100.00
70206;BME280;57593;55.896;37.396;2023-01-25T00:24:21;100881.63;;;0.57;100.00
70206;BME280;57593;55.896;37.396;2023-01-25T00:24:55;100884.22;;;0.57;100.00
70206;BME280;57593;55.896;37.396;2023-01-25T00:25:25;100884.53;;;0.37;100.00
70206;BME280;57593;55.896;37.396;2023-01-25T00:25:56;100886.44;;;0.42;100.00
70206;BME280;57593;55.896;37.396;2023-01-25T00:26:34;100886.13;;;0.38;100.00
70206;BME280;57593;55.896;37.396;2023-01-25T00:27:05;100885.91;;;0.40;100.00
70206;BME280;57593;55.896;37.396;2023-01-25T00:27:35;100882.84;;;0.43;100.00
70206;BME280;57593;55.896;37.396;2023-01-25T00:28:06;100883.19;;;0.46;100.00
70206;BME280;57593;55.896;37.396;2023-01-25T00:28:37;100881.72;;;0.50;100.00
70206;BME280;57593;55.896;37.396;2023-01-25T00:29:10;100875.50;;;0.40;100.00
70206;BME280;57593;55.896;37.396;2023-01-25T00:29:42;100865.66;;;0.42;100.00
70206;BME280;57593;55.896;37.396;2023-01-25T00:30:13;100880.66;;;0.28;100.00
70206;BME280;57593;55.896;37.396;2023-01-25T00:30:44;100869.22;;;0.17;100.00
70206;BME280;57593;55.896;37.396;2023-01-25T00:31:20;100871.59;;;0.18;100.00
70206;BME280;57593;55.896;37.396;2023-01-25T00:32:26;100870.97;;;0.35;100.00
70206;BME280;57593;55.896;37.396;2023-01-25T00:33:01;100872.88;;;0.28;100.00
70206;BME280;57593;55.896;37.396;2023-01-25T00:34:42;100876.69;;;0.13;100.00
70206;BME280;57593;55.896;37.396;2023-01-25T00:35:13;100871.28;;;0.15;100.00
70206;BME280;57593;55.896;37.396;2023-01-25T00:35:44;100870.34;;;0.09;100.00
70206;BME280;57593;55.896;37.396;2023-01-25T00:36:33;100867.63;;;0.04;100.00
70206;BME280;57593;55.896;37.396;2023-01-25T00:37:53;100859.16;;;-0.03;100.00
70206;BME280;57593;55.896;37.396;2023-01-25T00:38:29;100860.03;;;-0.09;100.00
70206;BME280;57593;55.896;37.396;2023-01-25T00:39:00;100858.03;;;0.05;100.00
70206;BME280;57593;55.896;37.396;2023-01-25T00:39:31;100866.97;;;0.09;100.00
70206;BME280;57593;55.896;37.396;2023-01-25T00:40:02;100865.56;;;-0.06;100.00
70206;BME280;57593;55.896;37.396;2023-01-25T00:40:33;100865.91;;;-0.02;100.00
70206;BME280;57593;55.896;37.396;2023-01-25T00:41:03;100860.16;;;-0.04;100.00
70206;BME280;57593;55.896;37.396;2023-01-25T00:41:34;100862.53;;;-0.03;100.00
70206;BME280;57593;55.896;37.396;2023-01-25T00:42:09;100859.38;;;-0.05;100.00
70206;BME280;57593;55.896;37.396;2023-01-25T00:42:40;100863.09;;;-0.12;100.00
70206;BME280;57593;55.896;37.396;2023-01-25T00:43:11;100856.56;;;-0.03;100.00
70206;BME280;57593;55.896;37.396;2023-01-25T00:43:41;100856.56;;;0.09;100.00
70206;BME280;57593;55.896;37.396;2023-01-25T00:44:12;100854.97;;;0.08;100.00
70206;BME280;57593;55.896;37.396;2023-01-25T00:44:42;100853.69;;;-0.13;100.00
70206;BME280;57593;55.896;37.396;2023-01-25T00:45:13;100854.31;;;-0.30;100.00
70206;BME280;57593;55.896;37.396;2023-01-25T00:45:44;100851.31;;;-0.15;100.00
70206;BME280;57593;55.896;37.396;2023-01-25T00:46:16;100854.63;;;-0.08;100.00
70206;BME280;57593;55.896;37.396;2023-01-25T00:46:47;100855.53;;;-0.02;100.00
70206;BME280;57593;55.896;37.396;2023-01-25T00:47:17;100849.31;;;-0.01;100.00
70206;BME280;57593;55.896;37.396;2023-01-25T00:47:48;100855.75;;;-0.04;100.00
70206;BME280;57593;55.896;37.396;2023-01-25T00:48:19;100855.88;;;0.02;100.00
70206;BME280;57593;55.896;37.396;2023-01-25T00:48:52;100858.72;;;0.00;100.00
70206;BME280;57593;55.896;37.396;2023-01-25T00:49:26;100848.88;;;0.14;100.00
70206;BME280;57593;55.896;37.396;2023-01-25T00:49:56;100858.16;;;0.22;100.00
70206;BME280;57593;55.896;37.396;2023-01-25T00:50:27;100855.00;;;0.20;100.00
70206;BME280;57593;55.896;37.396;2023-01-25T00:51:02;100844.06;;;0.17;100.00
70206;BME280;57593;55.896;37.396;2023-01-25T00:51:33;100857.63;;;0.20;100.00
70206;BME280;57593;55.896;37.396;2023-01-25T00:52:03;100854.31;;;0.12;100.00
70206;BME280;57593;55.896;37.396;2023-01-25T00:52:34;100852.97;;;0.22;100.00
70206;BME280;57593;55.896;37.396;2023-01-25T00:53:05;100857.63;;;0.20;100.00
70206;BME280;57593;55.896;37.396;2023-01-25T00:53:36;100852.09;;;0.28;100.00
70206;BME280;57593;55.896;37.396;2023-01-25T00:54:07;100853.44;;;0.30;100.00
70206;BME280;57593;55.896;37.396;2023-01-25T00:54:38;100849.84;;;0.31;100.00
70206;BME280;57593;55.896;37.396;2023-01-25T00:55:09;100851.84;;;0.29;100.00
70206;BME280;57593;55.896;37.396;2023-01-25T00:55:39;100847.47;;;0.30;100.00
70206;BME280;57593;55.896;37.396;2023-01-25T00:56:10;100855.94;;;0.25;100.00
70206;BME280;57593;55.896;37.396;2023-01-25T00:56:41;100846.53;;;0.24;100.00
70206;BME280;57593;55.896;37.396;2023-01-25T00:57:11;100849.59;;;0.21;100.00
70206;BME280;57593;55.896;37.396;2023-01-25T00:57:42;100856.16;;;0.24;100.00
70206;BME280;57593;55.896;37.396;2023-01-25T00:58:12;100858.09;;;0.28;100.00
70206;BME280;57593;55.896;37.396;2023-01-25T00:58:43;100852.66;;;0.30;100.00
70206;BME280;57593;55.896;37.396;2023-01-25T00:59:15;100866.00;;;0.33;100.00
70206;BME280;57593;55.896;37.396;2023-01-25T00:59:45;100853.34;;;0.37;100.00
70206;BME280;57593;55.896;37.396;2023-01-25T01:00:18;100852.56;;;0.37;100.00
70206;BME280;57593;55.896;37.396;2023-01-25T01:00:54;100862.06;;;0.43;100.00
70206;BME280;57593;55.896;37.396;2023-01-25T01:01:24;100855.84;;;0.44;100.00
70206;BME280;57593;55.896;37.396;2023-01-25T01:01:55;100865.56;;;0.60;100.00
70206;BME280;57593;55.896;37.396;2023-01-25T01:02:26;100860.47;;;0.65;100.00
70206;BME280;57593;55.896;37.396;2023-01-25T01:02:57;100862.97;;;0.60;100.00
70206;BME280;57593;55.896;37.396;2023-01-25T01:03:28;100860.91;;;0.62;100.00
70206;BME280;57593;55.896;37.396;2023-01-25T01:03:58;100858.22;;;0.57;100.00
70206;BME280;57593;55.896;37.396;2023-01-25T01:04:30;100869.16;;;0.59;100.00
70206;BME280;57593;55.896;37.396;2023-01-25T01:05:00;100859.56;;;0.60;100.00
70206;BME280;57593;55.896;37.396;2023-01-25T01:05:31;100862.97;;;0.60;100.00
70206;BME280;57593;55.896;37.396;2023-01-25T01:06:08;100854.47;;;0.53;100.00
70206;BME280;57593;55.896;37.396;2023-01-25T01:06:40;100848.28;;;0.66;100.00
70206;BME280;57593;55.896;37.396;2023-01-25T01:07:13;100852.44;;;0.79;100.00
70206;BME280;57593;55.896;37.396;2023-01-25T01:07:43;100851.19;;;0.69;100.00
70206;BME280;57593;55.896;37.396;2023-01-25T01:08:16;100853.34;;;0.73;100.00
70206;BME280;57593;55.896;37.396;2023-01-25T01:08:46;100851.09;;;0.64;100.00
70206;BME280;57593;55.896;37.396;2023-01-25T01:09:18;100849.06;;;0.66;100.00
70206;BME280;57593;55.896;37.396;2023-01-25T01:09:49;100862.84;;;0.67;100.00
70206;BME280;57593;55.896;37.396;2023-01-25T01:10:19;100854.03;;;0.68;100.00
70206;BME280;57593;55.896;37.396;2023-01-25T01:10:50;100861.59;;;0.69;100.00
70206;BME280;57593;55.896;37.396;2023-01-25T01:11:22;100861.81;;;0.56;100.00
70206;BME280;57593;55.896;37.396;2023-01-25T01:11:53;100863.06;;;0.53;100.00
70206;BME280;57593;55.896;37.396;2023-01-25T01:12:23;100860.94;;;0.50;100.00
70206;BME280;57593;55.896;37.396;2023-01-25T01:12:54;100856.75;;;0.38;100.00
70206;BME280;57593;55.896;37.396;2023-01-25T01:13:25;100859.66;;;0.53;100.00
70206;BME280;57593;55.896;37.396;2023-01-25T01:13:57;100859.56;;;0.48;100.00
70206;BME280;57593;55.896;37.396;2023-01-25T01:14:28;100860.91;;;0.62;100.00
70206;BME280;57593;55.896;37.396;2023-01-25T01:14:58;100849.06;;;0.66;100.00
70206;BME280;57593;55.896;37.396;2023-01-25T01:15:30;100840.03;;;0.69;100.00
70206;BME280;57593;55.896;37.396;2023-01-25T01:16:01;100841.72;;;0.63;100.00
70206;BME280;57593;55.896;37.396;2023-01-25T01:16:33;100845.09;;;0.64;100.00
70206;BME280;57593;55.896;37.396;2023-01-25T01:17:04;100849.03;;;0.54;100.00
70206;BME280;57593;55.896;37.396;2023-01-25T01:17:35;100833.00;;;0.58;100.00
70206;BME280;57593;55.896;37.396;2023-01-25T01:18:06;100832.09;;;0.64;100.00
70206;BME280;57593;55.896;37.396;2023-01-25T01:18:41;100832.53;;;0.61;100.00
70206;BME280;57593;55.896;37.396;2023-01-25T01:19:13;100838.56;;;0.61;100.00
70206;BME280;57593;55.896;37.396;2023-01-25T01:19:43;100828.16;;;0.61;100.00
70206;BME280;57593;55.896;37.396;2023-01-25T01:20:14;100830.16;;;0.59;100.00
70206;BME280;57593;55.896;37.396;2023-01-25T01:20:49;100828.16;;;0.61;100.00
70206;BME280;57593;55.896;37.396;2023-01-25T01:21:20;100826.88;;;0.64;100.00
70206;BME280;57593;55.896;37.396;2023-01-25T01:21:51;100828.84;;;0.57;100.00
70206;BME280;57593;55.896;37.396;2023-01-25T01:22:21;100830.63;;;0.68;100.00
70206;BME280;57593;55.896;37.396;2023-01-25T01:22:52;100829.25;;;0.65;100.00
70206;BME280;57593;55.896;37.396;2023-01-25T01:23:24;100831.31;;;0.75;100.00
70206;BME280;57593;55.896;37.396;2023-01-25T01:23:58;100825.66;;;0.78;100.00
70206;BME280;57593;55.896;37.396;2023-01-25T01:24:29;100828.81;;;0.68;100.00
70206;BME280;57593;55.896;37.396;2023-01-25T01:24:59;100818.88;;;0.53;100.00
70206;BME280;57593;55.896;37.396;2023-01-25T01:25:31;100821.81;;;0.57;100.00
70206;BME280;57593;55.896;37.396;2023-01-25T01:26:06;100818.75;;;0.37;100.00
70206;BME280;57593;55.896;37.396;2023-01-25T01:26:38;100821.34;;;0.13;100.00
70206;BME280;57593;55.896;37.396;2023-01-25T01:27:08;100822.50;;;0.41;100.00
70206;BME280;57593;55.896;37.396;2023-01-25T01:27:39;100829.06;;;0.31;100.00
70206;BME280;57593;55.896;37.396;2023-01-25T01:28:11;100825.06;;;0.17;100.00
70206;BME280;57593;55.896;37.396;2023-01-25T01:28:42;100830.84;;;0.19;100.00
70206;BME280;57593;55.896;37.396;2023-01-25T01:29:12;100832.53;;;0.37;100.00
70206;BME280;57593;55.896;37.396;2023-01-25T01:29:44;100830.84;;;0.43;100.00
70206;BME280;57593;55.896;37.396;2023-01-25T01:30:15;100826.88;;;0.40;100.00
70206;BME280;57593;55.896;37.396;2023-01-25T01:30:46;100819.34;;;0.27;100.00
70206;BME280;57593;55.896;37.396;2023-01-25T01:31:19;100814.81;;;0.22;100.00
70206;BME280;57593;55.896;37.396;2023-01-25T01:31:58;100817.25;;;0.17;100.00
70206;BME280;57593;55.896;37.396;2023-01-25T01:32:30;100814.22;;;0.20;100.00
70206;BME280;57593;55.896;37.396;2023-01-25T01:33:01;100809.72;;;0.27;100.00
70206;BME280;57593;55.896;37.396;2023-01-25T01:33:33;100810.72;;;0.26;100.00
70206;BME280;57593;55.896;37.396;2023-01-25T01:34:03;100809.03;;;0.08;100.00
70206;BME280;57593;55.896;37.396;2023-01-25T01:34:34;100806.53;;;0.13;100.00
70206;BME280;57593;55.896;37.396;2023-01-25T01:35:05;100814.81;;;0.22;100.00
70206;BME280;57593;55.896;37.396;2023-01-25T01:35:37;100815.03;;;0.21;100.00
70206;BME280;57593;55.896;37.396;2023-01-25T01:36:12;100813.53;;;0.25;100.00
70206;BME280;57593;55.896;37.396;2023-01-25T01:36:44;100807.34;;;0.26;100.00
70206;BME280;57593;55.896;37.396;2023-01-25T01:37:14;100807.25;;;0.44;100.00
70206;BME280;57593;55.896;37.396;2023-01-25T01:37:45;100806.78;;;0.47;100.00
70206;BME280;57593;55.896;37.396;2023-01-25T01:38:16;100808.69;;;0.40;100.00
70206;BME280;57593;55.896;37.396;2023-01-25T01:38:46;100807.78;;;0.46;100.00
70206;BME280;57593;55.896;37.396;2023-01-25T01:39:17;100807.69;;;0.41;100.00
70206;BME280;57593;55.896;37.396;2023-01-25T01:39:48;100807.78;;;0.23;100.00
70206;BME280;57593;55.896;37.396;2023-01-25T01:40:18;100815.03;;;0.21;100.00
70206;BME280;57593;55.896;37.396;2023-01-25T01:40:49;100810.28;;;0.29;100.00
70206;BME280;57593;55.896;37.396;2023-01-25T01:41:20;100805.22;;;0.34;100.00
70206;BME280;57593;55.896;37.396;2023-01-25T01:41:51;100808.91;;;0.15;100.00
70206;BME280;57593;55.896;37.396;2023-01-25T01:42:22;100814.78;;;0.10;100.00
70206;BME280;57593;55.896;37.396;2023-01-25T01:43:01;100805.75;;;0.25;100.00
70206;BME280;57593;55.896;37.396;2023-01-25T01:43:34;100804.19;;;0.24;100.00
70206;BME280;57593;55.896;37.396;2023-01-25T01:44:14;100805.78;;;0.37;100.00
70206;BME280;57593;55.896;37.396;2023-01-25T01:44:52;100798.41;;;0.33;100.00
70206;BME280;57593;55.896;37.396;2023-01-25T01:46:34;100807.22;;;0.32;100.00
70206;BME280;57593;55.896;37.396;2023-01-25T01:47:13;100798.63;;;0.08;100.00
70206;BME280;57593;55.896;37.396;2023-01-25T01:47:45;100792.78;;;0.13;100.00
70206;BME280;57593;55.896;37.396;2023-01-25T01:49:23;100798.53;;;0.15;100.00
70206;BME280;57593;55.896;37.396;2023-01-25T01:50:21;100790.84;;;0.20;100.00
70206;BME280;57593;55.896;37.396;2023-01-25T01:50:54;100787.13;;;0.28;100.00
70206;BME280;57593;55.896;37.396;2023-01-25T01:51:48;100794.56;;;0.24;100.00
70206;BME280;57593;55.896;37.396;2023-01-25T01:52:35;100794.56;;;0.12;100.00
70206;BME280;57593;55.896;37.396;2023-01-25T01:53:07;100790.25;;;0.06;100.00
70206;BME280;57593;55.896;37.396;2023-01-25T01:53:40;100800.44;;;0.20;100.00
70206;BME280;57593;55.896;37.396;2023-01-25T01:54:27;100795.72;;;0.28;100.00
70206;BME280;57593;55.896;37.396;2023-01-25T01:55:02;100800.69;;;0.30;100.00
70206;BME280;57593;55.896;37.396;2023-01-25T01:55:35;100794.44;;;0.07;100.00
70206;BME280;57593;55.896;37.396;2023-01-25T01:56:09;100797.94;;;0.01;100.00
70206;BME280;57593;55.896;37.396;2023-01-25T01:57:40;100792.28;;;0.04;100.00
70206;BME280;57593;55.896;37.396;2023-01-25T01:58:05;100793.31;;;0.03;100.00
70206;BME280;57593;55.896;37.396;2023-01-25T01:58:36;100795.81;;;0.10;100.00
70206;BME280;57593;55.896;37.396;2023-01-25T01:59:08;100798.16;;;-0.01;100.00
70206;BME280;57593;55.896;37.396;2023-01-25T01:59:50;100793.78;;;0.00;100.00
70206;BME280;57593;55.896;37.396;2023-01-25T02:00:27;100797.72;;;0.03;100.00
70206;BME280;57593;55.896;37.396;2023-01-25T02:00:59;100793.00;;;0.11;100.00
70206;BME280;57593;55.896;37.396;2023-01-25T02:01:30;100790.28;;;0.18;100.00
70206;BME280;57593;55.896;37.396;2023-01-25T02:02:02;100793.78;;;0.12;100.00
70206;BME280;57593;55.896;37.396;2023-01-25T02:02:33;100794.31;;;-0.10;100.00
70206;BME280;57593;55.896;37.396;2023-01-25T02:03:04;100800.31;;;0.03;100.00
70206;BME280;57593;55.896;37.396;2023-01-25T02:03:34;100796.94;;;0.14;100.00
70206;BME280;57593;55.896;37.396;2023-01-25T02:04:06;100795.59;;;0.23;100.00
70206;BME280;57593;55.896;37.396;2023-01-25T02:04:38;100803.50;;;0.16;100.00
70206;BME280;57593;55.896;37.396;2023-01-25T02:06:02;100790.41;;;0.35;100.00
70206;BME280;57593;55.896;37.396;2023-01-25T02:06:41;100789.25;;;0.31;100.00
70206;BME280;57593;55.896;37.396;2023-01-25T02:07:48;100786.78;;;0.24;100.00
70206;BME280;57593;55.896;37.396;2023-01-25T02:08:23;100787.34;;;0.26;100.00
70206;BME280;57593;55.896;37.396;2023-01-25T02:08:55;100788.69;;;0.17;100.00
70206;BME280;57593;55.896;37.396;2023-01-25T02:09:30;100790.84;;;0.20;100.00
70206;BME280;57593;55.896;37.396;2023-01-25T02:10:08;100795.91;;;0.15;100.00
70206;BME280;57593;55.896;37.396;2023-01-25T02:10:42;100787.00;;;0.23;100.00
70206;BME280;57593;55.896;37.396;2023-01-25T02:11:14;100800.22;;;0.21;100.00
70206;BME280;57593;55.896;37.396;2023-01-25T02:11:45;100802.69;;;0.28;100.00
70206;BME280;57593;55.896;37.396;2023-01-25T02:12:17;100799.88;;;0.06;100.00
70206;BME280;57593;55.896;37.396;2023-01-25T02:12:53;100800.31;;;0.03;100.00
70206;BME280;57593;55.896;37.396;2023-01-25T02:13:25;100795.69;;;0.16;100.00
70206;BME280;57593;55.896;37.396;2023-01-25T02:13:57;100797.50;;;0.16;100.00
70206;BME280;57593;55.896;37.396;2023-01-25T02:14:29;100802.13;;;0.14;100.00
70206;BME280;57593;55.896;37.396;2023-01-25T02:15:02;100789.69;;;0.04;100.00
70206;BME280;57593;55.896;37.396;2023-01-25T02:15:38;100793.31;;;0.03;100.00
70206;BME280;57593;55.896;37.396;2023-01-25T02:16:15;100797.50;;;0.04;100.00
70206;BME280;57593;55.896;37.396;2023-01-25T02:16:46;100796.59;;;0.10;100.00
70206;BME280;57593;55.896;37.396;2023-01-25T02:17:26;100796.38;;;0.12;100.00
70206;BME280;57593;55.896;37.396;2023-01-25T02:18:02;100798.06;;;0.18;100.00
70206;BME280;57593;55.896;37.396;2023-01-25T02:18:32;100796.03;;;0.08;100.00
70206;BME280;57593;55.896;37.396;2023-01-25T02:19:04;100800.31;;;0.03;100.00
70206;BME280;57593;55.896;37.396;2023-01-25T02:19:58;100803.81;;;0.20;100.00
70206;BME280;57593;55.896;37.396;2023-01-25T02:20:36;100801.69;;;0.17;100.00
70206;BME280;57593;55.896;37.396;2023-01-25T02:21:08;100798.09;;;0.30;100.00
70206;BME280;57593;55.896;37.396;2023-01-25T02:21:43;100799.66;;;0.31;100.00
70206;BME280;57593;55.896;37.396;2023-01-25T02:22:17;100804.19;;;0.35;100.00
70206;BME280;57593;55.896;37.396;2023-01-25T02:23:00;100802.50;;;0.41;100.00
70206;BME280;57593;55.896;37.396;2023-01-25T02:24:25;100798.63;;;0.20;100.00
70206;BME280;57593;55.896;37.396;2023-01-25T02:25:11;100800.31;;;0.03;100.00
70206;BME280;57593;55.896;37.396;2023-01-25T02:25:42;100798.38;;;-0.02;100.00
70206;BME280;57593;55.896;37.396;2023-01-25T02:26:14;100802.69;;;-0.08;100.00
70206;BME280;57593;55.896;37.396;2023-01-25T02:26:48;100804.94;;;0.12;100.00
70206;BME280;57593;55.896;37.396;2023-01-25T02:27:19;100801.69;;;0.17;100.00
70206;BME280;57593;55.896;37.396;2023-01-25T02:27:54;100798.28;;;0.16;100.00
70206;BME280;57593;55.896;37.396;2023-01-25T02:28:34;100804.50;;;0.04;100.00
70206;BME280;57593;55.896;37.396;2023-01-25T02:29:07;100806.06;;;0.05;100.00
70206;BME280;57593;55.896;37.396;2023-01-25T02:29:39;100811.63;;;0.08;100.00
70206;BME280;57593;55.896;37.396;2023-01-25T02:30:10;100809.59;;;-0.02;100.00
70206;BME280;57593;55.896;37.396;2023-01-25T02:30:42;100808.22;;;0.08;100.00
70206;BME280;57593;55.896;37.396;2023-01-25T02:31:12;100804.75;;;0.26;100.00
70206;BME280;57593;55.896;37.396;2023-01-25T02:31:44;100799.53;;;0.02;100.00
70206;BME280;57593;55.896;37.396;2023-01-25T02:32:15;100800.88;;;-0.07;100.00
70206;BME280;57593;55.896;37.396;2023-01-25T02:32:45;100803.28;;;0.18;100.00
70206;BME280;57593;55.896;37.396;2023-01-25T02:33:17;100800.44;;;0.20;100.00
70206;BME280;57593;55.896;37.396;2023-01-25T02:33:48;100796.59;;;0.10;100.00
70206;BME280;57593;55.896;37.396;2023-01-25T02:34:19;100815.47;;;0.17;100.00
70206;BME280;57593;55.896;37.396;2023-01-25T02:34:49;100813.56;;;0.13;100.00
70206;BME280;57593;55.896;37.396;2023-01-25T02:35:35;100809.81;;;0.09;100.00
70206;BME280;57593;55.896;37.396;2023-01-25T02:36:37;100803.84;;;0.08;100.00
70206;BME280;57593;55.896;37.396;2023-01-25T02:37:13;100815.78;;;0.09;100.00
70206;BME280;57593;55.896;37.396;2023-01-25T02:37:44;100812.41;;;-0.03;100.00
70206;BME280;57593;55.896;37.396;2023-01-25T02:38:17;100816.81;;;0.08;100.00
70206;BME280;57593;55.896;37.396;2023-01-25T02:38:59;100812.75;;;0.01;100.00
70206;BME280;57593;55.896;37.396;2023-01-25T02:39:30;100820.44;;;0.19;100.00
70206;BME280;57593;55.896;37.396;2023-01-25T02:40:01;100826.19;;;0.09;100.00
70206;BME280;57593;55.896;37.396;2023-01-25T02:40:47;100822.34;;;0.12;100.00
70206;BME280;57593;55.896;37.396;2023-01-25T02:41:55;100815.25;;;0.31;100.00
70206;BME280;57593;55.896;37.396;2023-01-25T02:42:31;100822.38;;;0.35;100.00
70206;BME280;57593;55.896;37.396;2023-01-25T02:43:05;100811.75;;;0.49;100.00
70206;BME280;57593;55.896;37.396;2023-01-25T02:43:37;100815.50;;;0.41;100.00
70206;BME280;57593;55.896;37.396;2023-01-25T02:44:21;100811.06;;;0.42;100.00
70206;BME280;57593;55.896;37.396;2023-01-25T02:44:53;100807.00;;;0.46;100.00
70206;BME280;57593;55.896;37.396;2023-01-25T02:45:26;100812.56;;;0.61;100.00
70206;BME280;57593;55.896;37.396;2023-01-25T02:46:04;100815.38;;;0.48;100.00
70206;BME280;57593;55.896;37.396;2023-01-25T02:46:41;100818.66;;;0.31;100.00
70206;BME280;57593;55.896;37.396;2023-01-25T02:47:12;100812.22;;;0.46;100.00
70206;BME280;57593;55.896;37.396;2023-01-25T02:47:42;100810.84;;;0.43;100.00
70206;BME280;57593;55.896;37.396;2023-01-25T02:48:13;100812.22;;;0.46;100.00
70206;BME280;57593;55.896;37.396;2023-01-25T02:48:44;100819.09;;;0.40;100.00
70206;BME280;57593;55.896;37.396;2023-01-25T02:49:16;100821.81;;;0.33;100.00
70206;BME280;57593;55.896;37.396;2023-01-25T02:49:47;100814.25;;;0.44;100.00
70206;BME280;57593;55.896;37.396;2023-01-25T02:50:18;100813.44;;;0.43;100.00
70206;BME280;57593;55.896;37.396;2023-01-25T02:50:49;100817.06;;;0.30;100.00
70206;BME280;57593;55.896;37.396;2023-01-25T02:51:22;100816.63;;;0.33;100.00
70206;BME280;57593;55.896;37.396;2023-01-25T02:51:54;100816.16;;;0.37;100.00
70206;BME280;57593;55.896;37.396;2023-01-25T02:52:28;100815.38;;;0.36;100.00
70206;BME280;57593;55.896;37.396;2023-01-25T02:52:59;100816.03;;;0.43;100.00
70206;BME280;57593;55.896;37.396;2023-01-25T02:53:30;100813.59;;;0.48;100.00
70206;BME280;57593;55.896;37.396;2023-01-25T02:54:02;100814.25;;;0.44;100.00
70206;BME280;57593;55.896;37.396;2023-01-25T02:54:33;100816.19;;;0.48;100.00
70206;BME280;57593;55.896;37.396;2023-01-25T02:55:05;100809.94;;;0.49;100.00
70206;BME280;57593;55.896;37.396;2023-01-25T02:55:36;100816.50;;;0.40;100.00
70206;BME280;57593;55.896;37.396;2023-01-25T02:56:07;100808.59;;;0.59;100.00
70206;BME280;57593;55.896;37.396;2023-01-25T02:56:38;100810.84;;;0.67;100.00
70206;BME280;57593;55.896;37.396;2023-01-25T02:57:12;100807.56;;;0.60;100.00
70206;BME280;57593;55.896;37.396;2023-01-25T02:57:48;100815.81;;;0.57;100.00